Brunswick Golden Isles Airport
KBQK : now visible

Airfield :











YOU CAN JOIN US ON...

 
LOGIN :

Register | Disclaimer

   EN    FR    IT 

 









Legend :    VFR   Marginal VFR   IFR   Intensive IFR   Very Intensive IFR
Visi :
Ceiling :
>= 8 km
>= 3000ft
5 to 8 km
1000 to 3000 ft
1500m to 5 km
500 to 1000 ft
800 to 1500m
200 to 500 ft
< 800m
< 200 ft
Symbols :   Thunderstorms  Fog  Heavy snow  Heavy precipitations  Wind > 20 kt






- Airport Elevation : 26 ft
- IATA code : BQK


KBQK - Brunswick Golden Isles

CURRENT METAR :
  • 190215Z AUTO 23003KT 10SM CLR 12/11 A2982 RMK AO2 T01170110

EXPIRED METARs :
  • 190155Z AUTO 00000KT 10SM CLR 12/12 A2982 RMK AO2 T01210119
  • 190135Z AUTO 00000KT 5SM BR CLR 12/12 A2982 RMK AO2 T01230117
  • 190115Z AUTO 00000KT 10SM CLR 13/12 A2981 RMK AO2 T01280120
  • 190055Z AUTO 00000KT 10SM CLR 13/12 A2981 RMK AO2 T01270118
  • 190035Z AUTO 00000KT 10SM CLR 13/12 A2980 RMK AO2 T01300117
  • 190015Z AUTO 00000KT 10SM CLR 14/12 A2981 RMK AO2 T01410119
  • 182355Z AUTO 00000KT 10SM CLR 14/12 A2980 RMK AO2 T01400118 10205 20134 402050087
  • 182335Z AUTO 00000KT 10SM CLR 14/12 A2980 RMK AO2 T01410119

TAF N/A



MET'MAP, your aeronautical weather chart ! - Copyright ORBIFLY December 2007 - Disclaimer

ORBIFLY MET'MAP TEAM :

Programming & Development : Alexandra Zaïnal
Concept & Development : Baudouin d'Aumeries
Co-Development & Prog : Marc-Olivier Méhu
Technical & hardware support : Manuel Goepfert

Contact : metmap@orbifly.com




SOURCES & CREDITS :

   NOAA       Earth
Advisory